createdAt,value
2023-01-19T00:01:41.304Z,92483.41
2023-01-19T00:04:09.298Z,92483.09
2023-01-19T00:06:37.275Z,92481.00
2023-01-19T00:09:05.113Z,92479.91
2023-01-19T00:11:33.082Z,92483.38
2023-01-19T00:14:00.918Z,92492.84
2023-01-19T00:16:28.880Z,92480.28
2023-01-19T00:18:56.940Z,92497.13
2023-01-19T00:21:24.945Z,92490.09
2023-01-19T00:23:53.266Z,92510.06
2023-01-19T00:26:22.592Z,92481.81
2023-01-19T00:28:50.988Z,92502.72
2023-01-19T00:31:20.926Z,92508.66
2023-01-19T00:33:49.630Z,92495.31
2023-01-19T00:36:17.562Z,92501.38
2023-01-19T00:38:45.788Z,92502.06
2023-01-19T00:41:13.641Z,92497.00
2023-01-19T00:43:41.779Z,92486.34
2023-01-19T00:46:09.967Z,92488.31
2023-01-19T00:48:38.005Z,92513.28
2023-01-19T00:51:06.064Z,92515.97
2023-01-19T00:53:33.993Z,92483.41
2023-01-19T00:56:01.873Z,92512.78
2023-01-19T00:58:29.938Z,92511.44
2023-01-19T01:01:03.864Z,92521.81
2023-01-19T01:03:32.974Z,92497.47
2023-01-19T01:06:01.311Z,92495.84
2023-01-19T01:08:29.964Z,92516.94
2023-01-19T01:10:57.831Z,92505.69
2023-01-19T01:13:27.763Z,92489.16
2023-01-19T01:15:57.207Z,92502.38
2023-01-19T01:18:25.524Z,92501.94
2023-01-19T01:20:55.343Z,92496.84
2023-01-19T01:23:24.299Z,92506.06
2023-01-19T01:25:52.135Z,92500.22
2023-01-19T01:28:20.228Z,92511.59
2023-01-19T01:30:48.177Z,92505.19
2023-01-19T01:33:15.909Z,92511.31
2023-01-19T01:36:04.803Z,92501.81
2023-01-19T01:38:32.696Z,92506.13
2023-01-19T01:41:05.126Z,92506.09
2023-01-19T01:43:55.122Z,92508.44
2023-01-19T01:46:23.037Z,92520.63
2023-01-19T01:48:50.713Z,92522.78
2023-01-19T01:51:42.600Z,92523.91
2023-01-19T01:54:20.457Z,92513.75
2023-01-19T01:56:51.752Z,92525.69
2023-01-19T01:59:39.341Z,92525.63
2023-01-19T02:02:30.695Z,92512.31
2023-01-19T02:05:04.300Z,92520.22
2023-01-19T02:08:02.821Z,92517.22
2023-01-19T02:10:50.395Z,92524.72
2023-01-19T02:13:22.704Z,92524.53
2023-01-19T02:15:59.591Z,92514.41
2023-01-19T02:18:30.320Z,92512.66
2023-01-19T02:21:19.268Z,92532.72
2023-01-19T02:23:59.075Z,92520.66
2023-01-19T02:26:28.967Z,92527.81
2023-01-19T02:28:59.635Z,92530.56
2023-01-19T02:31:30.291Z,92516.81
2023-01-19T02:34:00.323Z,92523.28
2023-01-19T02:36:36.589Z,92523.47
2023-01-19T02:39:06.329Z,92523.19
2023-01-19T02:41:54.021Z,92518.72
2023-01-19T02:44:23.721Z,92516.72
2023-01-19T02:46:55.061Z,92531.88
2023-01-19T02:49:23.415Z,92516.94
2023-01-19T02:51:51.538Z,92533.81
2023-01-19T02:54:49.731Z,92515.50
2023-01-19T02:59:43.207Z,92520.03
2023-01-19T03:02:42.447Z,92496.13
2023-01-19T03:05:28.402Z,92512.41
2023-01-19T03:08:35.701Z,92536.16
2023-01-19T03:11:07.631Z,92528.94
2023-01-19T03:13:59.407Z,92522.00
2023-01-19T03:16:39.563Z,92529.94
2023-01-19T03:19:18.068Z,92530.72
2023-01-19T03:21:51.032Z,92524.84
2023-01-19T03:24:21.583Z,92531.66
2023-01-19T03:26:59.037Z,92526.34
2023-01-19T03:29:35.219Z,92514.91
2023-01-19T03:32:11.602Z,92524.81
2023-01-19T03:34:42.458Z,92527.81
2023-01-19T03:37:11.750Z,92527.56
2023-01-19T03:39:40.728Z,92524.63
2023-01-19T03:42:15.201Z,92538.75
2023-01-19T03:44:45.581Z,92526.47
2023-01-19T03:47:15.237Z,92539.81
2023-01-19T03:49:45.523Z,92529.41
2023-01-19T03:52:13.731Z,92535.28
2023-01-19T03:54:41.695Z,92532.06
2023-01-19T03:57:10.313Z,92526.75
2023-01-19T03:59:38.175Z,92535.53
2023-01-19T04:02:06.076Z,92530.25
2023-01-19T04:04:34.062Z,92528.91
2023-01-19T04:07:01.988Z,92524.66
2023-01-19T04:09:30.253Z,92524.38
2023-01-19T04:11:58.233Z,92527.84
2023-01-19T04:14:26.129Z,92522.25
2023-01-19T04:16:54.122Z,92528.91
2023-01-19T04:19:21.986Z,92528.38
2023-01-19T04:21:50.975Z,92537.66
2023-01-19T04:24:18.915Z,92523.03
2023-01-19T04:26:46.828Z,92529.72
2023-01-19T04:29:14.832Z,92521.47
2023-01-19T04:31:43.368Z,92517.50
2023-01-19T04:34:11.285Z,92512.97
2023-01-19T04:36:39.074Z,92513.53
2023-01-19T04:39:09.139Z,92516.97
2023-01-19T04:41:37.135Z,92509.25
2023-01-19T04:44:05.225Z,92499.94
2023-01-19T04:46:33.599Z,92498.34
2023-01-19T04:49:01.781Z,92502.31
2023-01-19T04:51:29.922Z,92507.31
2023-01-19T04:53:58.040Z,92512.06
2023-01-19T04:56:25.910Z,92498.28
2023-01-19T04:58:53.784Z,92497.09
2023-01-19T05:01:21.877Z,92503.00
2023-01-19T05:03:50.269Z,92501.78
2023-01-19T05:06:18.049Z,92494.28
2023-01-19T05:08:45.859Z,92503.69
2023-01-19T05:11:13.772Z,92512.44
2023-01-19T05:13:41.848Z,92517.22
2023-01-19T05:16:09.801Z,92515.03
2023-01-19T05:18:38.296Z,92514.53
2023-01-19T05:21:07.393Z,92516.84
2023-01-19T05:23:35.597Z,92521.78
2023-01-19T05:26:03.970Z,92528.47
2023-01-19T05:28:33.493Z,92535.41
2023-01-19T05:31:01.864Z,92540.97
2023-01-19T05:33:29.912Z,92536.44
2023-01-19T05:35:57.869Z,92537.75
2023-01-19T05:38:34.592Z,92533.78
2023-01-19T05:41:03.236Z,92536.28
2023-01-19T05:43:31.302Z,92556.16
2023-01-19T05:45:59.116Z,92561.28
2023-01-19T05:48:27.176Z,92554.44
2023-01-19T05:50:58.374Z,92550.28
2023-01-19T05:53:27.692Z,92558.28
2023-01-19T05:56:06.588Z,92551.72
2023-01-19T05:58:35.637Z,92558.28
2023-01-19T06:01:08.760Z,92547.47
2023-01-19T06:03:37.618Z,92545.41
2023-01-19T06:06:05.860Z,92546.06
2023-01-19T06:08:33.633Z,92505.66
2023-01-19T06:11:01.591Z,92552.13
2023-01-19T06:13:29.355Z,92542.66
2023-01-19T06:15:59.415Z,92557.34
2023-01-19T06:18:27.943Z,92562.75
2023-01-19T06:20:59.101Z,92561.84
2023-01-19T06:23:29.747Z,92561.38
2023-01-19T06:25:58.083Z,92563.50
2023-01-19T06:28:26.208Z,92550.91
2023-01-19T06:30:56.021Z,92565.38
2023-01-19T06:33:25.314Z,92565.59
2023-01-19T06:35:53.279Z,92567.78
2023-01-19T06:38:21.272Z,92561.06
2023-01-19T06:40:54.921Z,92567.22
2023-01-19T06:43:22.835Z,92562.84
2023-01-19T06:45:51.634Z,92572.06
2023-01-19T06:48:19.919Z,92554.16
2023-01-19T06:50:49.179Z,92558.41
2023-01-19T06:53:17.581Z,92504.91
2023-01-19T06:55:45.929Z,92562.16
2023-01-19T06:58:14.410Z,92560.94
2023-01-19T07:00:43.168Z,92521.25
2023-01-19T07:03:19.838Z,92551.03
2023-01-19T07:05:51.248Z,92535.03
2023-01-19T07:08:19.699Z,92541.44
2023-01-19T07:11:25.305Z,92539.16
2023-01-19T07:13:38.476Z,92545.75
2023-01-19T07:16:12.277Z,92552.00
2023-01-19T07:18:41.342Z,92540.41
2023-01-19T07:21:09.819Z,92542.28
2023-01-19T07:23:38.749Z,92549.78
2023-01-19T07:26:06.739Z,92518.50
2023-01-19T07:28:34.507Z,92552.06
2023-01-19T07:31:02.872Z,92520.66
2023-01-19T07:33:31.177Z,92527.31
2023-01-19T07:35:59.470Z,92527.75
2023-01-19T07:38:27.618Z,92537.53
2023-01-19T07:41:05.988Z,92522.75
2023-01-19T07:43:35.045Z,92511.63
2023-01-19T07:46:08.533Z,92527.59
2023-01-19T07:48:36.735Z,92530.50
2023-01-19T07:51:11.104Z,92512.84
2023-01-19T07:53:42.147Z,92514.78
2023-01-19T07:56:11.040Z,92486.13
2023-01-19T07:58:39.754Z,92527.91
2023-01-19T08:01:12.728Z,92496.56
2023-01-19T08:03:41.505Z,92506.53
2023-01-19T08:06:22.999Z,92523.56
2023-01-19T08:08:51.201Z,92528.19
2023-01-19T08:11:19.137Z,92519.63
2023-01-19T08:13:47.089Z,92519.00
2023-01-19T08:16:15.007Z,92519.47
2023-01-19T08:18:43.047Z,92532.25
2023-01-19T08:21:10.941Z,92539.28
2023-01-19T08:23:38.901Z,92522.16
2023-01-19T08:26:27.607Z,92539.97
2023-01-19T08:28:57.856Z,92524.97
2023-01-19T08:31:26.828Z,92520.22
2023-01-19T08:33:54.934Z,92521.19
2023-01-19T08:36:24.094Z,92535.31
2023-01-19T08:38:52.575Z,92535.31
2023-01-19T08:41:20.728Z,92532.94
2023-01-19T08:43:49.453Z,92547.38
2023-01-19T08:46:21.026Z,92521.38
2023-01-19T08:48:52.612Z,92530.56
2023-01-19T08:51:21.448Z,92538.63
2023-01-19T08:53:49.327Z,92548.63
2023-01-19T08:56:19.015Z,92539.41
2023-01-19T08:58:59.453Z,92545.34
2023-01-19T09:01:37.530Z,92543.59
2023-01-19T09:04:05.796Z,92545.53
2023-01-19T09:06:34.397Z,92550.53
2023-01-19T09:09:02.441Z,92527.59
2023-01-19T09:11:31.083Z,92545.16
2023-01-19T09:13:58.850Z,92538.97
2023-01-19T09:16:27.519Z,92528.16
2023-01-19T09:18:55.724Z,92556.94
2023-01-19T09:21:23.748Z,92527.84
2023-01-19T09:23:51.681Z,92530.06
2023-01-19T09:26:19.775Z,92525.81
2023-01-19T09:28:47.699Z,92537.94
2023-01-19T09:31:16.154Z,92537.97
2023-01-19T09:33:44.107Z,92572.50
2023-01-19T09:36:12.052Z,92539.38
2023-01-19T09:38:40.275Z,92520.84
2023-01-19T09:41:37.475Z,92532.53
2023-01-19T09:44:06.095Z,92532.19
2023-01-19T09:46:41.789Z,92527.00
2023-01-19T09:49:26.826Z,92525.13
2023-01-19T09:51:54.892Z,92503.59
2023-01-19T09:54:41.355Z,92505.13
2023-01-19T09:57:12.991Z,92504.59
2023-01-19T09:59:44.037Z,92508.50
2023-01-19T10:02:37.377Z,92516.81
2023-01-19T10:05:27.356Z,92542.34
2023-01-19T10:08:08.844Z,92540.19
2023-01-19T10:10:40.616Z,92546.28
2023-01-19T10:13:42.392Z,92519.31
2023-01-19T10:16:31.824Z,92537.69
2023-01-19T10:19:15.798Z,92517.88
2023-01-19T10:21:46.794Z,92499.81
2023-01-19T10:24:18.534Z,92489.84
2023-01-19T10:26:50.456Z,92500.03
2023-01-19T10:29:39.226Z,92519.75
2023-01-19T10:32:26.310Z,92507.91
2023-01-19T10:34:55.957Z,92527.72
2023-01-19T10:37:32.491Z,92526.09
2023-01-19T10:42:34.629Z,92509.28
2023-01-19T10:45:02.648Z,92488.03
2023-01-19T10:47:39.471Z,92510.13
2023-01-19T10:50:29.228Z,92480.22
2023-01-19T10:53:04.018Z,92490.28
2023-01-19T10:55:34.416Z,92505.72
2023-01-19T10:58:02.488Z,92488.19
2023-01-19T11:00:43.728Z,92502.66
2023-01-19T11:03:28.281Z,92518.66
2023-01-19T11:06:24.156Z,92493.75
2023-01-19T11:08:54.456Z,92493.72
2023-01-19T11:11:24.763Z,92483.38
2023-01-19T11:14:07.357Z,92484.56
2023-01-19T11:16:38.227Z,92497.28
2023-01-19T11:19:19.620Z,92501.41
2023-01-19T11:21:47.973Z,92497.59
2023-01-19T11:24:17.069Z,92477.81
2023-01-19T11:26:48.399Z,92491.41
2023-01-19T11:29:25.802Z,92481.75
2023-01-19T11:31:55.462Z,92488.09
2023-01-19T11:34:31.717Z,92487.63
2023-01-19T11:37:05.252Z,92491.47
2023-01-19T11:39:56.460Z,92491.19
2023-01-19T11:42:26.427Z,92469.34
2023-01-19T11:45:05.539Z,92478.31
2023-01-19T11:47:43.922Z,92480.88
2023-01-19T11:50:25.235Z,92474.19
2023-01-19T11:52:53.700Z,92459.13
2023-01-19T11:55:28.524Z,92476.47
2023-01-19T11:57:56.656Z,92477.94
2023-01-19T12:00:36.740Z,92482.56
2023-01-19T12:03:26.590Z,92482.25
2023-01-19T12:06:00.567Z,92483.69
2023-01-19T12:08:35.159Z,92462.28
2023-01-19T12:11:06.023Z,92479.25
2023-01-19T12:13:35.915Z,92468.31
2023-01-19T12:16:23.830Z,92481.75
2023-01-19T12:19:06.940Z,92480.09
2023-01-19T12:21:35.692Z,92482.69
2023-01-19T12:24:38.937Z,92481.66
2023-01-19T12:27:18.558Z,92478.56
2023-01-19T12:29:47.311Z,92490.44
2023-01-19T12:32:16.727Z,92490.53
2023-01-19T12:34:56.190Z,92491.47
2023-01-19T12:37:39.897Z,92498.31
2023-01-19T12:40:14.057Z,92486.97
2023-01-19T12:42:48.221Z,92484.16
2023-01-19T12:45:25.860Z,92484.94
2023-01-19T12:47:54.911Z,92484.44
2023-01-19T12:50:26.107Z,92493.69
2023-01-19T12:53:00.113Z,92492.91
2023-01-19T12:55:34.916Z,92500.91
2023-01-19T12:58:06.199Z,92510.25
2023-01-19T13:00:43.063Z,92506.94
2023-01-19T13:03:20.149Z,92507.38
2023-01-19T13:05:52.738Z,92505.97
2023-01-19T13:08:30.075Z,92506.88
2023-01-19T13:11:02.436Z,92510.34
2023-01-19T13:13:49.527Z,92508.66
2023-01-19T13:16:20.663Z,92506.75
2023-01-19T13:18:50.762Z,92517.34
2023-01-19T13:21:31.572Z,92521.03
2023-01-19T13:24:11.197Z,92487.47
2023-01-19T13:26:51.646Z,92517.88
2023-01-19T13:29:34.338Z,92526.25
2023-01-19T13:32:16.304Z,92511.84
2023-01-19T13:34:55.154Z,92515.41
2023-01-19T13:37:27.527Z,92526.69
2023-01-19T13:39:56.710Z,92509.69
2023-01-19T13:42:54.510Z,92502.53
2023-01-19T13:45:34.707Z,92504.75
2023-01-19T13:48:06.801Z,92495.47
2023-01-19T13:50:38.829Z,92492.53
2023-01-19T13:53:21.425Z,92498.50
2023-01-19T13:56:20.993Z,92482.84
2023-01-19T13:59:04.238Z,92475.06
2023-01-19T14:01:33.306Z,92482.06
2023-01-19T14:04:01.505Z,92488.84
2023-01-19T14:06:44.933Z,92495.19
2023-01-19T14:09:18.672Z,92505.22
2023-01-19T14:12:04.125Z,92505.16
2023-01-19T14:14:32.595Z,92500.38
2023-01-19T14:17:00.613Z,92488.75
2023-01-19T14:19:29.072Z,92488.56
2023-01-19T14:22:05.277Z,92443.19
2023-01-19T14:24:33.561Z,92507.22
2023-01-19T14:27:27.458Z,92509.22
2023-01-19T14:30:20.975Z,92498.28
2023-01-19T14:32:48.899Z,92505.53
2023-01-19T14:35:25.222Z,92508.91
2023-01-19T14:37:53.432Z,92510.91
2023-01-19T14:40:24.730Z,92506.53
2023-01-19T14:42:55.110Z,92511.59
2023-01-19T14:45:32.206Z,92492.81
2023-01-19T14:48:03.670Z,92508.19
2023-01-19T14:50:41.539Z,92488.22
2023-01-19T14:53:17.868Z,92509.59
2023-01-19T14:55:52.835Z,92515.91
2023-01-19T14:58:24.447Z,92503.78
2023-01-19T15:00:56.105Z,92499.53
2023-01-19T15:03:34.989Z,92491.50
2023-01-19T15:06:17.417Z,92517.44
2023-01-19T15:08:46.566Z,92525.75
2023-01-19T15:11:21.482Z,92525.50
2023-01-19T15:13:50.314Z,92520.38
2023-01-19T15:16:18.806Z,92527.53
2023-01-19T15:18:46.981Z,92527.81
2023-01-19T15:21:16.433Z,92531.78
2023-01-19T15:23:45.121Z,92536.88
2023-01-19T15:26:17.757Z,92523.91
2023-01-19T15:28:47.431Z,92529.28
2023-01-19T15:31:17.957Z,92524.56
2023-01-19T15:33:46.341Z,92513.28
2023-01-19T15:36:19.379Z,92503.06
2023-01-19T15:38:50.448Z,92510.97
2023-01-19T15:41:26.785Z,92516.97
2023-01-19T15:43:54.865Z,92526.22
2023-01-19T15:46:25.345Z,92527.72
2023-01-19T15:48:53.859Z,92516.84
2023-01-19T15:51:25.774Z,92524.59
2023-01-19T15:53:55.221Z,92521.13
2023-01-19T15:56:31.072Z,92520.44
2023-01-19T15:58:59.829Z,92535.97
2023-01-19T16:01:31.819Z,92541.59
2023-01-19T16:04:02.791Z,92539.69
2023-01-19T16:06:32.672Z,92559.03
2023-01-19T16:09:01.774Z,92563.00
2023-01-19T16:11:35.783Z,92573.94
2023-01-19T16:14:03.959Z,92583.66
2023-01-19T16:16:32.504Z,92587.69
2023-01-19T16:19:00.735Z,92590.31
2023-01-19T16:21:29.054Z,92593.66
2023-01-19T16:23:56.946Z,92605.56
2023-01-19T16:26:29.726Z,92601.47
2023-01-19T16:28:59.837Z,92600.50
2023-01-19T16:31:29.082Z,92587.28
2023-01-19T16:33:57.703Z,92604.00
2023-01-19T16:36:30.836Z,92602.63
2023-01-19T16:39:01.196Z,92595.66
2023-01-19T16:41:30.087Z,92603.56
2023-01-19T16:43:59.456Z,92601.59
2023-01-19T16:46:30.936Z,92609.59
2023-01-19T16:49:02.290Z,92609.13
2023-01-19T16:51:31.186Z,92613.50
2023-01-19T16:53:59.461Z,92618.66
2023-01-19T16:56:27.942Z,92612.50
2023-01-19T16:58:59.803Z,92621.06
2023-01-19T17:01:29.497Z,92626.56
2023-01-19T17:03:58.006Z,92646.09
2023-01-19T17:06:26.697Z,92635.09
2023-01-19T17:08:54.737Z,92653.22
2023-01-19T17:11:25.960Z,92647.88
2023-01-19T17:14:00.325Z,92640.44
2023-01-19T17:16:31.785Z,92625.72
2023-01-19T17:19:01.852Z,92627.44
2023-01-19T17:21:30.374Z,92633.34
2023-01-19T17:23:59.255Z,92642.25
2023-01-19T17:26:29.990Z,92656.69
2023-01-19T17:29:02.572Z,92662.75
2023-01-19T17:31:32.493Z,92643.84
2023-01-19T17:34:01.815Z,92636.94
2023-01-19T17:36:31.757Z,92616.50
2023-01-19T17:39:04.740Z,92632.91
2023-01-19T17:41:37.992Z,92607.91
2023-01-19T17:44:07.809Z,92605.22
2023-01-19T17:46:37.826Z,92608.47
2023-01-19T17:49:07.944Z,92601.69
2023-01-19T17:51:36.752Z,92607.28
2023-01-19T17:54:05.097Z,92611.38
2023-01-19T17:56:37.196Z,92615.31
2023-01-19T17:59:08.383Z,92628.59
2023-01-19T18:01:41.170Z,92638.16
2023-01-19T18:04:09.705Z,92636.75
2023-01-19T18:06:39.564Z,92639.63
2023-01-19T18:09:08.922Z,92640.00
2023-01-19T18:11:37.512Z,92650.28
2023-01-19T18:14:06.964Z,92653.22
2023-01-19T18:16:35.462Z,92643.31
2023-01-19T18:19:04.370Z,92634.28
2023-01-19T18:21:32.690Z,92628.94
2023-01-19T18:24:04.542Z,92621.72
2023-01-19T18:26:35.328Z,92632.19
2023-01-19T18:29:03.836Z,92623.66
2023-01-19T18:31:32.408Z,92634.41
2023-01-19T18:34:00.826Z,92633.91
2023-01-19T18:36:32.365Z,92621.91
2023-01-19T18:39:02.116Z,92634.16
2023-01-19T18:41:30.993Z,92620.91
2023-01-19T18:44:00.401Z,92626.09
2023-01-19T18:46:31.606Z,92629.19
2023-01-19T18:49:00.201Z,92640.91
2023-01-19T18:51:28.692Z,92640.63
2023-01-19T18:53:58.869Z,92642.72
2023-01-19T18:56:27.640Z,92630.16
2023-01-19T18:58:56.304Z,92626.47
2023-01-19T19:01:26.327Z,92617.06
2023-01-19T19:03:56.226Z,92617.53
2023-01-19T19:06:27.476Z,92627.91
2023-01-19T19:08:58.341Z,92618.03
2023-01-19T19:11:28.275Z,92630.53
2023-01-19T19:14:01.306Z,92644.13
2023-01-19T19:16:31.681Z,92648.13
2023-01-19T19:19:01.915Z,92634.81
2023-01-19T19:21:30.171Z,92633.28
2023-01-19T19:23:59.488Z,92630.06
2023-01-19T19:26:28.750Z,92641.41
2023-01-19T19:28:57.440Z,92631.34
2023-01-19T19:31:27.973Z,92636.13
2023-01-19T19:33:58.012Z,92659.50
2023-01-19T19:36:28.063Z,92669.41
2023-01-19T19:38:56.774Z,92655.81
2023-01-19T19:41:29.721Z,92677.13
2023-01-19T19:43:58.218Z,92676.56
2023-01-19T19:46:27.424Z,92676.84
2023-01-19T19:48:56.048Z,92674.56
2023-01-19T19:51:28.596Z,92682.16
2023-01-19T19:53:59.373Z,92683.72
2023-01-19T19:56:30.300Z,92681.81
2023-01-19T19:58:59.733Z,92685.00
2023-01-19T20:01:32.785Z,92692.22
2023-01-19T20:04:10.968Z,92681.81
2023-01-19T20:06:41.232Z,92657.66
2023-01-19T20:09:12.951Z,92670.13
2023-01-19T20:11:42.464Z,92669.06
2023-01-19T20:14:12.714Z,92662.41
2023-01-19T20:16:40.807Z,92649.91
2023-01-19T20:19:09.021Z,92638.94
2023-01-19T20:21:42.003Z,92643.50
2023-01-19T20:24:20.473Z,92644.88
2023-01-19T20:26:52.501Z,92571.72
2023-01-19T20:29:21.138Z,92648.31
2023-01-19T20:31:52.506Z,92647.22
2023-01-19T20:34:23.737Z,92643.50
2023-01-19T20:36:54.218Z,92631.00
2023-01-19T20:39:23.811Z,92628.88
2023-01-19T20:41:52.783Z,92637.16
2023-01-19T20:44:26.782Z,92632.09
2023-01-19T20:46:55.802Z,92622.50
2023-01-19T20:49:24.164Z,92624.34
2023-01-19T20:51:52.338Z,92622.47
2023-01-19T20:54:23.428Z,92616.13
2023-01-19T20:56:51.551Z,92605.16
2023-01-19T20:59:19.901Z,92592.41
2023-01-19T21:01:48.814Z,92593.47
2023-01-19T21:04:17.682Z,92585.56
2023-01-19T21:06:46.111Z,92593.25
2023-01-19T21:09:14.023Z,92597.00
2023-01-19T21:11:41.908Z,92598.59
2023-01-19T21:14:09.958Z,92588.50
2023-01-19T21:16:38.123Z,92603.66
2023-01-19T21:19:06.411Z,92598.03
2023-01-19T21:21:34.856Z,92591.91
2023-01-19T21:24:04.471Z,92585.25
2023-01-19T21:26:33.789Z,92596.69
2023-01-19T21:29:03.026Z,92595.13
2023-01-19T21:31:31.754Z,92591.91
2023-01-19T21:33:59.952Z,92607.88
2023-01-19T21:36:28.719Z,92613.72
2023-01-19T21:39:01.018Z,92631.28
2023-01-19T21:41:30.390Z,92617.72
2023-01-19T21:44:00.163Z,92608.13
2023-01-19T21:46:33.368Z,92608.72
2023-01-19T21:49:03.930Z,92611.09
2023-01-19T21:51:35.051Z,92606.56
2023-01-19T21:54:04.501Z,92594.59
2023-01-19T21:56:33.596Z,92581.03
2023-01-19T21:59:04.536Z,92590.34
2023-01-19T22:01:33.999Z,92583.16
2023-01-19T22:04:02.210Z,92572.81
2023-01-19T22:06:30.212Z,92566.94
2023-01-19T22:08:58.616Z,92569.88
2023-01-19T22:11:27.834Z,92573.59
2023-01-19T22:13:56.719Z,92577.84
2023-01-19T22:16:24.591Z,92569.88
2023-01-19T22:18:56.495Z,92573.84
2023-01-19T22:21:28.266Z,92569.06
2023-01-19T22:23:59.293Z,92562.94
2023-01-19T22:26:29.298Z,92552.31
2023-01-19T22:28:59.633Z,92549.91
2023-01-19T22:31:29.107Z,92557.06
2023-01-19T22:33:57.413Z,92539.81
2023-01-19T22:36:30.718Z,92540.31
2023-01-19T22:39:01.144Z,92530.78
2023-01-19T22:41:40.989Z,92527.03
2023-01-19T22:44:13.519Z,92511.59
2023-01-19T22:46:42.238Z,92491.16
2023-01-19T22:49:14.308Z,92506.81
2023-01-19T22:51:43.146Z,92519.06
2023-01-19T22:54:11.909Z,92512.19
2023-01-19T22:56:40.594Z,92515.63
2023-01-19T22:59:09.276Z,92522.78
2023-01-19T23:01:42.587Z,92514.28
2023-01-19T23:04:18.386Z,92516.13
2023-01-19T23:06:50.634Z,92507.09
2023-01-19T23:09:20.533Z,92510.03
2023-01-19T23:11:50.888Z,92510.81
2023-01-19T23:14:22.014Z,92500.44
2023-01-19T23:16:50.053Z,92497.00
2023-01-19T23:19:20.137Z,92503.66
2023-01-19T23:21:51.536Z,92500.19
2023-01-19T23:24:19.880Z,92495.69
2023-01-19T23:26:51.227Z,92513.50
2023-01-19T23:29:19.868Z,92521.75
2023-01-19T23:31:49.576Z,92528.91
2023-01-19T23:34:17.745Z,92529.19
2023-01-19T23:36:45.785Z,92541.41
2023-01-19T23:39:19.232Z,92532.91
2023-01-19T23:41:47.771Z,92558.44
2023-01-19T23:44:17.622Z,92566.44
2023-01-19T23:46:46.552Z,92586.09
2023-01-19T23:49:14.596Z,92615.63
2023-01-19T23:51:42.505Z,92632.09
2023-01-19T23:54:10.379Z,92632.28
2023-01-19T23:56:39.180Z,92632.78
2023-01-19T23:59:10.461Z,92636.50
